Wetterdaten: Woche 27.10.14 - 02.11.14 (KW44)
Datum Zeit Temp. A. Feuchte A. Luftdruck Regen Wind Richtung Sonnenschein ET UV Solar Taupunkt Windchill Windben Empfang
27.10.2014 00:00 2,8 C 86 % 1028,8 hPa 0,0 l/m 0,3 km/h (0 Bft) N 0,00 h 0,000 mm 0,0 UV-I 0 W/m 0,6 C 2,8 C 2,0 km/h (1 Bft) 0,00 %
27.10.2014 01:00 4,0 C 87 % 1028,2 hPa 0,0 l/m 0,4 km/h (0 Bft) SO 0,00 h 0,000 mm 0,0 UV-I 0 W/m 2,0 C 4,0 C 2,0 km/h (1 Bft) 0,00 %
27.10.2014 02:00 4,4 C 87 % 1028,0 hPa 0,0 l/m 0,0 km/h (0 Bft) N 0,00 h 0,000 mm 0,0 UV-I 0 W/m 2,4 C 4,4 C 0,0 km/h (0 Bft) 0,00 %
27.10.2014 03:00 4,6 C 86 % 1027,9 hPa 0,0 l/m 0,7 km/h (0 Bft) O 0,00 h 0,000 mm 0,0 UV-I 0 W/m 2,5 C 4,6 C 3,0 km/h (1 Bft) 0,00 %
27.10.2014 04:00 4,8 C 86 % 1027,9 hPa 0,0 l/m 0,1 km/h (0 Bft) N 0,00 h 0,000 mm 0,0 UV-I 0 W/m 2,7 C 4,8 C 1,0 km/h (0 Bft) 0,00 %
27.10.2014 05:00 5,1 C 86 % 1027,9 hPa 0,0 l/m 0,6 km/h (0 Bft) O 0,00 h 0,000 mm 0,0 UV-I 0 W/m 3,0 C 5,1 C 1,0 km/h (0 Bft) 0,00 %
27.10.2014 06:00 5,3 C 86 % 1028,0 hPa 0,0 l/m 0,0 km/h (0 Bft) N 0,00 h 0,000 mm 0,0 UV-I 0 W/m 3,1 C 5,3 C 0,0 km/h (0 Bft) 0,00 %
27.10.2014 07:00 5,5 C 83 % 1028,3 hPa 0,0 l/m 0,0 km/h (0 Bft) N 0,00 h 0,000 mm 0,0 UV-I 23 W/m 2,8 C 5,5 C 0,0 km/h (0 Bft) 0,00 %
27.10.2014 08:00 5,7 C 81 % 1028,5 hPa 0,0 l/m 0,0 km/h (0 Bft) N 1,00 h 0,000 mm 1,0 UV-I 106 W/m 2,7 C 5,7 C 0,0 km/h (0 Bft) 0,00 %
27.10.2014 09:00 5,8 C 80 % 1028,8 hPa 0,0 l/m 0,0 km/h (0 Bft) N 1,00 h 0,000 mm 1,0 UV-I 224 W/m 2,5 C 5,8 C 0,0 km/h (0 Bft) 0,00 %
27.10.2014 10:00 5,9 C 79 % 1028,9 hPa 0,0 l/m 0,0 km/h (0 Bft) N 1,00 h 0,000 mm 1,0 UV-I 301 W/m 2,5 C 5,9 C 0,0 km/h (0 Bft) 0,00 %
27.10.2014 11:00 5,9 C 78 % 1028,3 hPa 0,0 l/m 0,1 km/h (0 Bft) N 0,75 h 0,000 mm 1,0 UV-I 271 W/m 2,5 C 5,9 C 1,0 km/h (0 Bft) 0,00 %
27.10.2014 12:00 5,8 C 78 % 1027,8 hPa 0,0 l/m 0,0 km/h (0 Bft) N 1,00 h 0,000 mm 1,0 UV-I 290 W/m 2,3 C 5,8 C 0,0 km/h (0 Bft) 0,00 %
27.10.2014 13:00 6,4 C 75 % 1027,2 hPa 0,0 l/m 0,0 km/h (0 Bft) N 1,00 h 0,000 mm 1,0 UV-I 432 W/m 2,3 C 6,4 C 0,0 km/h (0 Bft) 0,00 %
27.10.2014 14:00 6,8 C 74 % 1026,6 hPa 0,0 l/m 0,0 km/h (0 Bft) N 1,00 h 0,000 mm 1,0 UV-I 367 W/m 2,5 C 6,8 C 0,0 km/h (0 Bft) 0,00 %
27.10.2014 15:00 6,9 C 74 % 1026,1 hPa 0,0 l/m 1,6 km/h (1 Bft) O-NO 0,50 h 0,000 mm 1,0 UV-I 135 W/m 2,5 C 6,8 C 3,0 km/h (1 Bft) 0,00 %
27.10.2014 16:00 6,6 C 76 % 1026,1 hPa 0,0 l/m 1,8 km/h (1 Bft) O 0,00 h 0,000 mm 0,0 UV-I 0 W/m 2,7 C 6,5 C 3,0 km/h (1 Bft) 0,00 %
27.10.2014 17:00 6,8 C 77 % 1026,2 hPa 0,0 l/m 3,4 km/h (1 Bft) O-NO 0,00 h 0,000 mm 0,0 UV-I 0 W/m 3,0 C 6,4 C 6,9 km/h (2 Bft) 0,00 %
27.10.2014 18:00 7,0 C 77 % 1026,0 hPa 0,0 l/m 5,1 km/h (1 Bft) O 0,00 h 0,000 mm 0,0 UV-I 0 W/m 3,3 C 6,0 C 7,9 km/h (2 Bft) 0,00 %
27.10.2014 19:00 7,1 C 76 % 1025,5 hPa 0,0 l/m 6,0 km/h (2 Bft) O-NO 0,00 h 0,000 mm 0,0 UV-I 0 W/m 3,2 C 5,6 C 9,9 km/h (2 Bft) 0,00 %
27.10.2014 20:00 6,6 C 78 % 1025,5 hPa 0,0 l/m 5,5 km/h (1 Bft) O 0,00 h 0,000 mm 0,0 UV-I 0 W/m 2,9 C 5,6 C 8,9 km/h (2 Bft) 0,00 %
27.10.2014 21:00 5,9 C 79 % 1025,5 hPa 0,0 l/m 10,9 km/h (2 Bft) O 0,00 h 0,000 mm 0,0 UV-I 0 W/m 2,6 C 2,2 C 16,9 km/h (3 Bft) 0,00 %
27.10.2014 22:00 5,6 C 79 % 1025,1 hPa 0,0 l/m 10,8 km/h (2 Bft) O 0,00 h 0,000 mm 0,0 UV-I 0 W/m 2,3 C 2,4 C 13,8 km/h (3 Bft) 0,00 %
27.10.2014 23:00 5,3 C 80 % 1024,7 hPa 0,0 l/m 8,6 km/h (2 Bft) O-NO 0,00 h 0,000 mm 0,0 UV-I 0 W/m 2,0 C 2,4 C 10,9 km/h (2 Bft) 0,00 %
28.10.2014 00:00 4,9 C 80 % 1024,3 hPa 0,0 l/m 6,5 km/h (2 Bft) SO 0,00 h 0,000 mm 0,0 UV-I 0 W/m 1,8 C 3,8 C 10,9 km/h (2 Bft) 0,00 %
28.10.2014 01:00 4,5 C 81 % 1023,9 hPa 0,0 l/m 6,8 km/h (2 Bft) O 0,00 h 0,000 mm 0,0 UV-I 0 W/m 1,5 C 3,0 C 10,9 km/h (2 Bft) 0,00 %
28.10.2014 02:00 4,1 C 81 % 1023,7 hPa 0,0 l/m 5,7 km/h (1 Bft) O 0,00 h 0,000 mm 0,0 UV-I 0 W/m 1,2 C 3,8 C 9,9 km/h (2 Bft) 0,00 %
28.10.2014 03:00 3,7 C 81 % 1023,3 hPa 0,0 l/m 3,9 km/h (1 Bft) O-SO 0,00 h 0,000 mm 0,0 UV-I 0 W/m 0,7 C 3,7 C 6,9 km/h (2 Bft) 0,00 %
28.10.2014 04:00 3,4 C 82 % 1023,3 hPa 0,0 l/m 3,4 km/h (1 Bft) O-SO 0,00 h 0,000 mm 0,0 UV-I 0 W/m 0,6 C 3,4 C 6,9 km/h (2 Bft) 0,00 %
28.10.2014 05:00 3,2 C 83 % 1023,0 hPa 0,0 l/m 3,8 km/h (1 Bft) O-SO 0,00 h 0,000 mm 0,0 UV-I 0 W/m 0,6 C 3,2 C 6,9 km/h (2 Bft) 0,00 %
28.10.2014 06:00 3,1 C 83 % 1023,0 hPa 0,0 l/m 5,5 km/h (1 Bft) O 0,00 h 0,000 mm 0,0 UV-I 0 W/m 0,4 C 2,9 C 7,9 km/h (2 Bft) 0,00 %
28.10.2014 07:00 3,1 C 82 % 1023,0 hPa 0,0 l/m 3,7 km/h (1 Bft) O-NO 0,00 h 0,000 mm 0,0 UV-I 55 W/m 0,2 C 3,0 C 5,9 km/h (2 Bft) 0,00 %
28.10.2014 08:00 3,4 C 80 % 1022,9 hPa 0,0 l/m 1,7 km/h (1 Bft) O 1,00 h 0,000 mm 1,0 UV-I 165 W/m 0,2 C 3,4 C 4,0 km/h (1 Bft) 0,00 %
28.10.2014 09:00 3,9 C 78 % 1022,7 hPa 0,0 l/m 2,5 km/h (1 Bft) O-SO 1,00 h 0,000 mm 1,3 UV-I 441 W/m 0,3 C 3,9 C 5,9 km/h (2 Bft) 0,00 %
28.10.2014 10:00 4,6 C 74 % 1022,3 hPa 0,0 l/m 3,4 km/h (1 Bft) O 1,00 h 0,000 mm 2,0 UV-I 695 W/m 0,4 C 4,5 C 4,9 km/h (1 Bft) 0,00 %
28.10.2014 11:00 5,4 C 73 % 1021,2 hPa 0,0 l/m 0,3 km/h (0 Bft) N 1,00 h 0,000 mm 2,0 UV-I 809 W/m 0,9 C 5,4 C 2,0 km/h (1 Bft) 0,00 %
28.10.2014 12:00 6,3 C 70 % 1019,8 hPa 0,0 l/m 0,0 km/h (0 Bft) N 1,00 h 0,000 mm 2,0 UV-I 735 W/m 1,2 C 6,3 C 0,0 km/h (0 Bft) 0,00 %
28.10.2014 13:00 6,8 C 70 % 1019,0 hPa 0,0 l/m 0,1 km/h (0 Bft) N 1,00 h 0,000 mm 2,0 UV-I 612 W/m 1,7 C 6,8 C 1,0 km/h (0 Bft) 0,00 %
28.10.2014 14:00 7,0 C 70 % 1018,3 hPa 0,0 l/m 0,1 km/h (0 Bft) N 1,00 h 0,000 mm 1,0 UV-I 450 W/m 1,8 C 7,0 C 1,0 km/h (0 Bft) 0,00 %
28.10.2014 15:00 6,2 C 72 % 1018,2 hPa 0,0 l/m 0,0 km/h (0 Bft) N 1,00 h 0,000 mm 1,0 UV-I 234 W/m 1,5 C 6,2 C 0,0 km/h (0 Bft) 0,00 %
28.10.2014 16:00 4,7 C 78 % 1019,1 hPa 0,0 l/m 0,8 km/h (0 Bft) W-SW 0,00 h 0,000 mm 0,0 UV-I 47 W/m 1,2 C 4,7 C 2,0 km/h (1 Bft) 0,00 %
28.10.2014 17:00 3,3 C 83 % 1019,3 hPa 0,0 l/m 0,0 km/h (0 Bft) N 0,00 h 0,000 mm 0,0 UV-I 0 W/m 0,7 C 3,3 C 0,0 km/h (0 Bft) 0,00 %
28.10.2014 18:00 3,0 C 85 % 1019,6 hPa 0,0 l/m 0,0 km/h (0 Bft) N 0,00 h 0,000 mm 0,0 UV-I 0 W/m 0,7 C 3,0 C 0,0 km/h (0 Bft) 0,00 %
28.10.2014 19:00 3,9 C 84 % 1019,2 hPa 0,0 l/m 0,0 km/h (0 Bft) N 0,00 h 0,000 mm 0,0 UV-I 0 W/m 1,5 C 3,9 C 0,0 km/h (0 Bft) 0,00 %
28.10.2014 20:00 3,8 C 84 % 1019,0 hPa 0,0 l/m 0,0 km/h (0 Bft) N 0,00 h 0,000 mm 0,0 UV-I 0 W/m 1,3 C 3,8 C 0,0 km/h (0 Bft) 0,00 %
28.10.2014 22:00 1,9 C 81 % 1019,0 hPa 0,0 l/m 0,0 km/h (0 Bft) N 0,00 h 0,000 mm 0,0 UV-I 0 W/m -1,0 C 1,9 C 0,0 km/h (0 Bft) 0,00 %
28.10.2014 23:00 1,8 C 82 % 1019,2 hPa 0,0 l/m 0,0 km/h (0 Bft) N 0,00 h 0,000 mm 0,0 UV-I 0 W/m -1,0 C 1,8 C 0,0 km/h (0 Bft) 0,00 %
29.10.2014 00:00 2,2 C 82 % 1019,0 hPa 0,0 l/m 0,0 km/h (0 Bft) N 0,00 h 0,000 mm 0,0 UV-I 0 W/m -0,5 C 2,2 C 0,0 km/h (0 Bft) 0,00 %
29.10.2014 01:00 2,8 C 86 % 1018,9 hPa 0,0 l/m 0,0 km/h (0 Bft) N 0,00 h 0,000 mm 0,0 UV-I 0 W/m 0,7 C 2,8 C 0,0 km/h (0 Bft) 0,00 %
29.10.2014 02:00 3,1 C 87 % 1018,8 hPa 0,0 l/m 0,0 km/h (0 Bft) N 0,00 h 0,000 mm 0,0 UV-I 0 W/m 1,2 C 3,1 C 0,0 km/h (0 Bft) 0,00 %
29.10.2014 03:00 3,5 C 86 % 1018,3 hPa 0,0 l/m 0,0 km/h (0 Bft) N 0,00 h 0,000 mm 0,0 UV-I 0 W/m 1,4 C 3,5 C 0,0 km/h (0 Bft) 0,00 %
29.10.2014 04:00 3,8 C 86 % 1018,1 hPa 0,0 l/m 0,0 km/h (0 Bft) N 0,00 h 0,000 mm 0,0 UV-I 0 W/m 1,7 C 3,8 C 0,0 km/h (0 Bft) 0,00 %
29.10.2014 05:00 3,6 C 86 % 1018,0 hPa 0,0 l/m 0,0 km/h (0 Bft) N 0,00 h 0,000 mm 0,0 UV-I 0 W/m 1,5 C 3,6 C 0,0 km/h (0 Bft) 0,00 %
29.10.2014 06:00 3,5 C 87 % 1018,4 hPa 0,0 l/m 0,0 km/h (0 Bft) N 0,00 h 0,000 mm 0,0 UV-I 0 W/m 1,4 C 3,5 C 0,0 km/h (0 Bft) 0,00 %
29.10.2014 07:00 3,2 C 86 % 1018,8 hPa 0,0 l/m 0,0 km/h (0 Bft) N 0,00 h 0,000 mm 1,0 UV-I 72 W/m 1,1 C 3,2 C 0,0 km/h (0 Bft) 0,00 %
29.10.2014 08:00 4,7 C 82 % 1018,9 hPa 0,0 l/m 0,0 km/h (0 Bft) N 1,00 h 0,000 mm 1,0 UV-I 242 W/m 1,9 C 4,7 C 0,0 km/h (0 Bft) 0,00 %
29.10.2014 09:00 5,8 C 77 % 1019,1 hPa 0,0 l/m 0,0 km/h (0 Bft) N 1,00 h 0,000 mm 1,7 UV-I 548 W/m 2,1 C 5,8 C 0,0 km/h (0 Bft) 0,00 %
29.10.2014 10:00 6,8 C 72 % 1019,0 hPa 0,0 l/m 0,0 km/h (0 Bft) N 1,00 h 0,000 mm 2,0 UV-I 765 W/m 2,1 C 6,8 C 0,0 km/h (0 Bft) 0,00 %
29.10.2014 11:00 7,4 C 72 % 1018,6 hPa 0,0 l/m 0,1 km/h (0 Bft) N 1,00 h 0,000 mm 2,0 UV-I 745 W/m 2,7 C 7,4 C 1,0 km/h (0 Bft) 0,00 %
29.10.2014 12:00 7,7 C 72 % 1018,5 hPa 0,0 l/m 2,0 km/h (1 Bft) O 1,00 h 0,000 mm 1,7 UV-I 647 W/m 3,0 C 7,4 C 3,0 km/h (1 Bft) 0,00 %
29.10.2014 13:00 7,7 C 73 % 1018,1 hPa 0,0 l/m 2,0 km/h (1 Bft) O-SO 1,00 h 0,000 mm 2,0 UV-I 635 W/m 3,1 C 7,7 C 3,0 km/h (1 Bft) 0,00 %
29.10.2014 14:00 8,3 C 72 % 1017,9 hPa 0,0 l/m 0,2 km/h (0 Bft) N 1,00 h 0,000 mm 1,0 UV-I 425 W/m 3,4 C 8,3 C 1,0 km/h (0 Bft) 0,00 %
29.10.2014 15:00 8,3 C 72 % 1017,8 hPa 0,0 l/m 0,0 km/h (0 Bft) N 0,75 h 0,000 mm 1,0 UV-I 190 W/m 3,6 C 8,3 C 0,0 km/h (0 Bft) 0,00 %
29.10.2014 16:00 7,3 C 77 % 1018,0 hPa 0,0 l/m 0,0 km/h (0 Bft) N 0,00 h 0,000 mm 0,0 UV-I 7 W/m 3,4 C 7,3 C 0,0 km/h (0 Bft) 0,00 %
29.10.2014 17:00 6,3 C 80 % 1018,6 hPa 0,0 l/m 0,0 km/h (0 Bft) N 0,00 h 0,000 mm 0,0 UV-I 0 W/m 3,1 C 6,3 C 0,0 km/h (0 Bft) 0,00 %
29.10.2014 18:00 5,5 C 83 % 1019,0 hPa 0,0 l/m 0,0 km/h (0 Bft) N 0,00 h 0,000 mm 0,0 UV-I 0 W/m 2,8 C 5,5 C 0,0 km/h (0 Bft) 0,00 %
29.10.2014 19:00 4,9 C 84 % 1019,3 hPa 0,0 l/m 0,0 km/h (0 Bft) N 0,00 h 0,000 mm 0,0 UV-I 0 W/m 2,3 C 4,9 C 0,0 km/h (0 Bft) 0,00 %
29.10.2014 20:00 4,9 C 85 % 1019,8 hPa 0,0 l/m 0,0 km/h (0 Bft) N 0,00 h 0,000 mm 0,0 UV-I 0 W/m 2,6 C 4,9 C 0,0 km/h (0 Bft) 0,00 %
29.10.2014 21:00 5,1 C 85 % 1020,2 hPa 0,0 l/m 0,0 km/h (0 Bft) N 0,00 h 0,000 mm 0,0 UV-I 0 W/m 2,8 C 5,1 C 0,0 km/h (0 Bft) 0,00 %
29.10.2014 22:00 5,3 C 85 % 1020,4 hPa 0,0 l/m 0,0 km/h (0 Bft) N 0,00 h 0,000 mm 0,0 UV-I 0 W/m 3,0 C 5,3 C 0,0 km/h (0 Bft) 0,00 %
29.10.2014 23:00 5,3 C 85 % 1020,7 hPa 0,0 l/m 0,0 km/h (0 Bft) N 0,00 h 0,000 mm 0,0 UV-I 0 W/m 3,0 C 5,3 C 0,0 km/h (0 Bft) 0,00 %
30.10.2014 00:00 5,4 C 85 % 1021,0 hPa 0,0 l/m 0,0 km/h (0 Bft) N 0,00 h 0,000 mm 0,0 UV-I 0 W/m 3,0 C 5,4 C 0,0 km/h (0 Bft) 0,00 %
30.10.2014 01:00 5,3 C 85 % 1021,3 hPa 0,0 l/m 0,0 km/h (0 Bft) N 0,00 h 0,000 mm 0,0 UV-I 0 W/m 2,9 C 5,3 C 0,0 km/h (0 Bft) 0,00 %
30.10.2014 02:00 5,3 C 85 % 1021,5 hPa 0,0 l/m 0,0 km/h (0 Bft) N 0,00 h 0,000 mm 0,0 UV-I 0 W/m 3,0 C 5,3 C 0,0 km/h (0 Bft) 0,00 %
30.10.2014 03:00 5,2 C 86 % 1021,7 hPa 0,0 l/m 0,0 km/h (0 Bft) N 0,00 h 0,000 mm 0,0 UV-I 0 W/m 3,0 C 5,2 C 0,0 km/h (0 Bft) 0,00 %
30.10.2014 04:00 5,3 C 86 % 1021,8 hPa 0,0 l/m 0,0 km/h (0 Bft) N 0,00 h 0,000 mm 0,0 UV-I 0 W/m 3,2 C 5,3 C 0,0 km/h (0 Bft) 0,00 %
30.10.2014 05:00 5,4 C 86 % 1022,2 hPa 0,0 l/m 0,0 km/h (0 Bft) N 0,00 h 0,000 mm 0,0 UV-I 0 W/m 3,1 C 5,4 C 0,0 km/h (0 Bft) 0,00 %
30.10.2014 06:00 5,4 C 85 % 1022,7 hPa 0,0 l/m 0,0 km/h (0 Bft) N 0,00 h 0,000 mm 0,0 UV-I 0 W/m 3,2 C 5,4 C 0,0 km/h (0 Bft) 0,00 %
30.10.2014 07:00 5,8 C 85 % 1023,5 hPa 0,0 l/m 0,0 km/h (0 Bft) N 0,00 h 0,000 mm 0,0 UV-I 33 W/m 3,5 C 5,8 C 0,0 km/h (0 Bft) 0,00 %
30.10.2014 08:00 7,2 C 81 % 1023,9 hPa 0,0 l/m 0,0 km/h (0 Bft) N 1,00 h 0,000 mm 1,0 UV-I 294 W/m 4,0 C 7,2 C 0,0 km/h (0 Bft) 0,00 %
30.10.2014 09:00 9,2 C 74 % 1023,8 hPa 0,0 l/m 0,1 km/h (0 Bft) N 1,00 h 0,000 mm 1,3 UV-I 561 W/m 4,8 C 9,2 C 1,0 km/h (0 Bft) 0,00 %
30.10.2014 10:00 10,7 C 71 % 1023,3 hPa 0,0 l/m 0,0 km/h (0 Bft) N 1,00 h 0,000 mm 2,0 UV-I 769 W/m 5,7 C 10,7 C 0,0 km/h (0 Bft) 0,00 %
30.10.2014 11:00 11,4 C 67 % 1023,3 hPa 0,0 l/m 0,3 km/h (0 Bft) W 1,00 h 0,000 mm 1,7 UV-I 684 W/m 5,5 C 11,4 C 1,0 km/h (0 Bft) 0,00 %
30.10.2014 12:00 12,1 C 67 % 1023,5 hPa 0,0 l/m 0,2 km/h (0 Bft) N 1,00 h 0,000 mm 1,7 UV-I 569 W/m 6,0 C 12,1 C 2,0 km/h (1 Bft) 0,00 %
30.10.2014 13:00 12,6 C 65 % 1023,5 hPa 0,0 l/m 1,8 km/h (1 Bft) NO 1,00 h 0,000 mm 2,0 UV-I 661 W/m 6,1 C 12,6 C 3,0 km/h (1 Bft) 0,00 %
30.10.2014 14:00 12,1 C 67 % 1023,7 hPa 0,0 l/m 0,2 km/h (0 Bft) N 0,75 h 0,000 mm 1,0 UV-I 284 W/m 6,1 C 12,1 C 1,0 km/h (0 Bft) 0,00 %
30.10.2014 15:00 10,6 C 72 % 1024,2 hPa 0,0 l/m 0,4 km/h (0 Bft) SW 0,00 h 0,000 mm 0,0 UV-I 46 W/m 5,9 C 10,6 C 1,0 km/h (0 Bft) 0,00 %
30.10.2014 16:00 10,1 C 74 % 1024,5 hPa 0,0 l/m 0,0 km/h (0 Bft) N 0,00 h 0,000 mm 0,0 UV-I 0 W/m 5,7 C 10,1 C 0,0 km/h (0 Bft) 0,00 %
30.10.2014 17:00 9,7 C 77 % 1025,1 hPa 0,0 l/m 0,0 km/h (0 Bft) N 0,00 h 0,000 mm 0,0 UV-I 0 W/m 5,7 C 9,7 C 0,0 km/h (0 Bft) 0,00 %
30.10.2014 18:00 9,4 C 80 % 1025,5 hPa 0,0 l/m 0,0 km/h (0 Bft) N 0,00 h 0,000 mm 0,0 UV-I 0 W/m 6,1 C 9,4 C 0,0 km/h (0 Bft) 0,00 %
30.10.2014 19:00 9,3 C 80 % 1026,1 hPa 0,0 l/m 0,0 km/h (0 Bft) N 0,00 h 0,000 mm 0,0 UV-I 0 W/m 6,0 C 9,3 C 0,0 km/h (0 Bft) 0,00 %
30.10.2014 20:00 9,1 C 82 % 1026,3 hPa 0,0 l/m 0,0 km/h (0 Bft) N 0,00 h 0,000 mm 0,0 UV-I 0 W/m 6,2 C 9,1 C 0,0 km/h (0 Bft) 0,00 %
30.10.2014 21:00 9,0 C 84 % 1026,6 hPa 0,0 l/m 0,0 km/h (0 Bft) N 0,00 h 0,000 mm 0,0 UV-I 0 W/m 6,3 C 9,0 C 0,0 km/h (0 Bft) 0,00 %
30.10.2014 22:00 8,9 C 84 % 1026,8 hPa 0,0 l/m 0,0 km/h (0 Bft) N 0,00 h 0,000 mm 0,0 UV-I 0 W/m 6,3 C 8,9 C 0,0 km/h (0 Bft) 0,00 %
30.10.2014 23:00 8,9 C 84 % 1026,9 hPa 0,0 l/m 0,0 km/h (0 Bft) N 0,00 h 0,000 mm 0,0 UV-I 0 W/m 6,3 C 8,9 C 0,0 km/h (0 Bft) 0,00 %
31.10.2014 00:00 8,8 C 84 % 1026,8 hPa 0,0 l/m 0,0 km/h (0 Bft) N 0,00 h 0,000 mm 0,0 UV-I 0 W/m 6,3 C 8,8 C 0,0 km/h (0 Bft) 0,00 %
31.10.2014 01:00 8,7 C 84 % 1026,8 hPa 0,0 l/m 0,0 km/h (0 Bft) N 0,00 h 0,000 mm 0,0 UV-I 0 W/m 6,2 C 8,7 C 0,0 km/h (0 Bft) 0,00 %
31.10.2014 02:00 8,4 C 85 % 1026,5 hPa 0,0 l/m 0,0 km/h (0 Bft) N 0,00 h 0,000 mm 0,0 UV-I 0 W/m 5,9 C 8,4 C 0,0 km/h (0 Bft) 0,00 %
31.10.2014 03:00 7,9 C 85 % 1026,7 hPa 0,0 l/m 0,0 km/h (0 Bft) N 0,00 h 0,000 mm 0,0 UV-I 0 W/m 5,6 C 7,9 C 0,0 km/h (0 Bft) 0,00 %
31.10.2014 04:00 7,9 C 85 % 1026,8 hPa 0,0 l/m 0,0 km/h (0 Bft) N 0,00 h 0,000 mm 0,0 UV-I 0 W/m 5,5 C 7,9 C 0,0 km/h (0 Bft) 0,00 %
31.10.2014 05:00 7,5 C 84 % 1026,6 hPa 0,0 l/m 0,0 km/h (0 Bft) N 0,00 h 0,000 mm 0,0 UV-I 0 W/m 5,0 C 7,5 C 0,0 km/h (0 Bft) 0,00 %
31.10.2014 06:00 7,6 C 84 % 1026,7 hPa 0,0 l/m 0,0 km/h (0 Bft) N 0,00 h 0,000 mm 0,0 UV-I 0 W/m 5,0 C 7,6 C 0,0 km/h (0 Bft) 0,00 %
31.10.2014 07:00 7,3 C 84 % 1027,4 hPa 0,0 l/m 0,0 km/h (0 Bft) N 0,25 h 0,000 mm 0,0 UV-I 53 W/m 4,8 C 7,3 C 0,0 km/h (0 Bft) 0,00 %
31.10.2014 08:00 7,9 C 83 % 1027,5 hPa 0,0 l/m 0,0 km/h (0 Bft) N 1,00 h 0,000 mm 1,0 UV-I 289 W/m 5,1 C 7,9 C 0,0 km/h (0 Bft) 0,00 %
31.10.2014 09:00 9,9 C 74 % 1026,8 hPa 0,0 l/m 0,0 km/h (0 Bft) N 1,00 h 0,000 mm 1,7 UV-I 548 W/m 5,5 C 9,9 C 0,0 km/h (0 Bft) 0,00 %
31.10.2014 10:00 9,2 C 75 % 1027,1 hPa 0,0 l/m 0,1 km/h (0 Bft) N 1,00 h 0,000 mm 1,7 UV-I 631 W/m 5,1 C 9,2 C 1,0 km/h (0 Bft) 0,00 %
31.10.2014 11:00 9,4 C 74 % 1027,3 hPa 0,0 l/m 0,3 km/h (0 Bft) NW 1,00 h 0,000 mm 2,0 UV-I 787 W/m 5,1 C 9,4 C 1,0 km/h (0 Bft) 0,00 %
31.10.2014 12:00 10,3 C 71 % 1027,0 hPa 0,0 l/m 0,3 km/h (0 Bft) O-SO 1,00 h 0,000 mm 1,7 UV-I 589 W/m 5,3 C 10,3 C 1,0 km/h (0 Bft) 0,00 %
31.10.2014 13:00 11,4 C 67 % 1026,2 hPa 0,0 l/m 0,0 km/h (0 Bft) N 1,00 h 0,000 mm 1,7 UV-I 563 W/m 5,6 C 11,4 C 0,0 km/h (0 Bft) 0,00 %
31.10.2014 14:00 11,0 C 69 % 1025,3 hPa 0,0 l/m 0,0 km/h (0 Bft) N 1,00 h 0,000 mm 1,0 UV-I 420 W/m 5,5 C 11,0 C 0,0 km/h (0 Bft) 0,00 %
31.10.2014 15:00 10,7 C 70 % 1025,4 hPa 0,0 l/m 0,0 km/h (0 Bft) N 1,00 h 0,000 mm 1,0 UV-I 177 W/m 5,5 C 10,7 C 0,0 km/h (0 Bft) 0,00 %
31.10.2014 16:00 9,3 C 76 % 1026,3 hPa 0,0 l/m 0,0 km/h (0 Bft) N 0,00 h 0,000 mm 0,0 UV-I 3 W/m 5,2 C 9,3 C 0,0 km/h (0 Bft) 0,00 %
31.10.2014 17:00 7,4 C 82 % 1026,5 hPa 0,0 l/m 0,0 km/h (0 Bft) N 0,00 h 0,000 mm 0,0 UV-I 0 W/m 4,5 C 7,4 C 0,0 km/h (0 Bft) 0,00 %
31.10.2014 18:00 6,4 C 84 % 1026,8 hPa 0,0 l/m 0,0 km/h (0 Bft) N 0,00 h 0,000 mm 0,0 UV-I 0 W/m 3,9 C 6,4 C 0,0 km/h (0 Bft) 0,00 %
31.10.2014 19:00 6,0 C 85 % 1026,8 hPa 0,0 l/m 0,0 km/h (0 Bft) N 0,00 h 0,000 mm 0,0 UV-I 0 W/m 3,7 C 6,0 C 0,0 km/h (0 Bft) 0,00 %
31.10.2014 20:00 5,7 C 85 % 1026,8 hPa 0,0 l/m 0,0 km/h (0 Bft) N 0,00 h 0,000 mm 0,0 UV-I 0 W/m 3,4 C 5,7 C 0,0 km/h (0 Bft) 0,00 %
31.10.2014 21:00 5,5 C 86 % 1026,8 hPa 0,0 l/m 0,0 km/h (0 Bft) N 0,00 h 0,000 mm 0,0 UV-I 0 W/m 3,2 C 5,5 C 0,0 km/h (0 Bft) 0,00 %
31.10.2014 22:00 4,8 C 86 % 1026,9 hPa 0,0 l/m 0,0 km/h (0 Bft) N 0,00 h 0,000 mm 0,0 UV-I 0 W/m 2,7 C 4,8 C 0,0 km/h (0 Bft) 0,00 %
31.10.2014 23:00 4,5 C 86 % 1026,8 hPa 0,0 l/m 0,0 km/h (0 Bft) N 0,00 h 0,000 mm 0,0 UV-I 0 W/m 2,4 C 4,5 C 0,0 km/h (0 Bft) 0,00 %
01.11.2014 00:00 4,0 C 87 % 1026,5 hPa 0,0 l/m 0,0 km/h (0 Bft) N 0,00 h 0,000 mm 0,0 UV-I 0 W/m 2,0 C 4,0 C 0,0 km/h (0 Bft) 0,00 %
01.11.2014 01:00 3,6 C 87 % 1026,5 hPa 0,3 l/m 0,0 km/h (0 Bft) N 0,00 h 0,000 mm 0,0 UV-I 0 W/m 1,5 C 3,6 C 0,0 km/h (0 Bft) 0,00 %
01.11.2014 02:00 3,9 C 87 % 1026,4 hPa 0,0 l/m 0,0 km/h (0 Bft) N 0,00 h 0,000 mm 0,0 UV-I 0 W/m 1,9 C 3,9 C 0,0 km/h (0 Bft) 0,00 %
01.11.2014 03:00 4,3 C 87 % 1026,0 hPa 0,0 l/m 0,0 km/h (0 Bft) N 0,00 h 0,000 mm 0,0 UV-I 0 W/m 2,2 C 4,3 C 0,0 km/h (0 Bft) 0,00 %
01.11.2014 04:00 4,4 C 86 % 1025,5 hPa 0,0 l/m 0,0 km/h (0 Bft) N 0,00 h 0,000 mm 0,0 UV-I 0 W/m 2,3 C 4,4 C 0,0 km/h (0 Bft) 0,00 %
01.11.2014 05:00 4,6 C 86 % 1025,3 hPa 0,0 l/m 0,0 km/h (0 Bft) N 0,00 h 0,000 mm 0,0 UV-I 0 W/m 2,4 C 4,6 C 0,0 km/h (0 Bft) 0,00 %
01.11.2014 06:00 4,7 C 86 % 1025,3 hPa 0,0 l/m 0,0 km/h (0 Bft) N 0,00 h 0,000 mm 0,0 UV-I 0 W/m 2,6 C 4,7 C 0,0 km/h (0 Bft) 0,00 %
01.11.2014 07:00 5,2 C 86 % 1025,5 hPa 0,0 l/m 0,0 km/h (0 Bft) N 0,00 h 0,000 mm 1,0 UV-I 10 W/m 3,0 C 5,2 C 0,0 km/h (0 Bft) 0,00 %
01.11.2014 08:00 5,6 C 85 % 1025,3 hPa 0,0 l/m 0,0 km/h (0 Bft) N 0,00 h 0,000 mm 1,0 UV-I 64 W/m 3,3 C 5,6 C 0,0 km/h (0 Bft) 0,00 %
01.11.2014 09:00 6,2 C 86 % 1025,1 hPa 0,0 l/m 0,0 km/h (0 Bft) O-SO 0,00 h 0,000 mm 1,7 UV-I 122 W/m 4,0 C 6,2 C 0,0 km/h (0 Bft) 0,00 %
01.11.2014 10:00 7,5 C 85 % 1024,9 hPa 0,0 l/m 0,6 km/h (0 Bft) N 0,00 h 0,000 mm 2,0 UV-I 166 W/m 5,1 C 7,5 C 1,0 km/h (0 Bft) 0,00 %
01.11.2014 11:00 8,2 C 82 % 1024,2 hPa 0,0 l/m 0,0 km/h (0 Bft) N 0,00 h 0,000 mm 2,0 UV-I 153 W/m 5,4 C 8,2 C 0,0 km/h (0 Bft) 0,00 %
01.11.2014 12:00 9,6 C 77 % 1023,1 hPa 0,0 l/m 0,0 km/h (0 Bft) N 0,00 h 0,000 mm 2,0 UV-I 184 W/m 5,8 C 9,6 C 0,0 km/h (0 Bft) 0,00 %
01.11.2014 13:00 9,9 C 78 % 1022,2 hPa 0,0 l/m 0,0 km/h (0 Bft) N 0,00 h 0,000 mm 1,7 UV-I 102 W/m 6,3 C 9,9 C 0,0 km/h (0 Bft) 0,00 %
01.11.2014 14:00 10,3 C 79 % 1022,1 hPa 0,0 l/m 0,0 km/h (0 Bft) N 0,00 h 0,000 mm 1,0 UV-I 88 W/m 6,8 C 10,3 C 0,0 km/h (0 Bft) 0,00 %
01.11.2014 15:00 11,2 C 75 % 1021,9 hPa 0,0 l/m 0,0 km/h (0 Bft) N 0,00 h 0,000 mm 1,0 UV-I 88 W/m 6,9 C 11,2 C 0,0 km/h (0 Bft) 0,00 %
01.11.2014 16:00 10,3 C 78 % 1022,1 hPa 0,0 l/m 0,0 km/h (0 Bft) N 0,50 h 0,000 mm 0,0 UV-I 49 W/m 6,7 C 10,3 C 0,0 km/h (0 Bft) 0,00 %
01.11.2014 17:00 8,6 C 83 % 1022,3 hPa 0,0 l/m 0,0 km/h (0 Bft) N 0,00 h 0,000 mm 0,0 UV-I 0 W/m 5,9 C 8,6 C 0,0 km/h (0 Bft) 0,00 %
01.11.2014 18:00 7,6 C 84 % 1022,3 hPa 0,0 l/m 0,0 km/h (0 Bft) N 0,00 h 0,000 mm 0,0 UV-I 0 W/m 5,0 C 7,6 C 0,0 km/h (0 Bft) 0,00 %
01.11.2014 19:00 6,8 C 85 % 1023,0 hPa 0,0 l/m 0,0 km/h (0 Bft) N 0,00 h 0,000 mm 0,0 UV-I 0 W/m 4,5 C 6,8 C 0,0 km/h (0 Bft) 0,00 %
01.11.2014 20:00 6,4 C 86 % 1022,3 hPa 0,0 l/m 0,0 km/h (0 Bft) N 0,00 h 0,000 mm 0,0 UV-I 0 W/m 4,2 C 6,4 C 0,0 km/h (0 Bft) 0,00 %
01.11.2014 21:00 6,0 C 86 % 1021,9 hPa 0,0 l/m 0,0 km/h (0 Bft) N 0,00 h 0,000 mm 0,0 UV-I 0 W/m 3,9 C 6,0 C 0,0 km/h (0 Bft) 0,00 %
01.11.2014 22:00 5,6 C 86 % 1021,8 hPa 0,0 l/m 0,0 km/h (0 Bft) N 0,00 h 0,000 mm 0,0 UV-I 0 W/m 3,4 C 5,6 C 0,0 km/h (0 Bft) 0,00 %
01.11.2014 23:00 4,8 C 86 % 1021,8 hPa 0,0 l/m 0,0 km/h (0 Bft) N 0,00 h 0,000 mm 0,0 UV-I 0 W/m 2,7 C 4,8 C 0,0 km/h (0 Bft) 0,00 %
02.11.2014 00:00 5,1 C 86 % 1021,8 hPa 0,0 l/m 0,0 km/h (0 Bft) N 0,00 h 0,000 mm 0,0 UV-I 0 W/m 3,0 C 5,1 C 0,0 km/h (0 Bft) 0,00 %
02.11.2014 01:00 5,6 C 86 % 1021,5 hPa 0,3 l/m 0,0 km/h (0 Bft) N 0,00 h 0,000 mm 0,0 UV-I 0 W/m 3,4 C 5,6 C 0,0 km/h (0 Bft) 0,00 %
02.11.2014 02:00 5,8 C 86 % 1021,0 hPa 0,0 l/m 0,0 km/h (0 Bft) N 0,00 h 0,000 mm 0,0 UV-I 0 W/m 3,7 C 5,8 C 0,0 km/h (0 Bft) 0,00 %
02.11.2014 03:00 5,9 C 86 % 1020,8 hPa 0,0 l/m 0,0 km/h (0 Bft) N 0,00 h 0,000 mm 0,0 UV-I 0 W/m 3,8 C 5,9 C 0,0 km/h (0 Bft) 0,00 %
02.11.2014 04:00 5,3 C 87 % 1021,0 hPa 0,0 l/m 0,0 km/h (0 Bft) N 0,00 h 0,000 mm 0,0 UV-I 0 W/m 3,2 C 5,3 C 0,0 km/h (0 Bft) 0,00 %
02.11.2014 05:00 4,8 C 87 % 1021,1 hPa 0,0 l/m 0,0 km/h (0 Bft) N 0,00 h 0,000 mm 0,0 UV-I 0 W/m 2,8 C 4,8 C 0,0 km/h (0 Bft) 0,00 %
02.11.2014 06:00 4,6 C 87 % 1021,1 hPa 0,0 l/m 0,0 km/h (0 Bft) N 0,00 h 0,000 mm 0,0 UV-I 0 W/m 2,6 C 4,6 C 0,0 km/h (0 Bft) 0,00 %
02.11.2014 07:00 4,5 C 86 % 1021,2 hPa 0,0 l/m 0,0 km/h (0 Bft) N 0,00 h 0,000 mm 1,0 UV-I 23 W/m 2,4 C 4,5 C 0,0 km/h (0 Bft) 0,00 %
02.11.2014 08:00 5,1 C 86 % 1021,1 hPa 0,0 l/m 0,0 km/h (0 Bft) N 0,00 h 0,000 mm 1,0 UV-I 41 W/m 2,9 C 5,1 C 0,0 km/h (0 Bft) 0,00 %
02.11.2014 09:00 6,0 C 86 % 1020,8 hPa 0,0 l/m 0,0 km/h (0 Bft) N 0,00 h 0,000 mm 1,3 UV-I 70 W/m 3,8 C 6,0 C 0,0 km/h (0 Bft) 0,00 %
02.11.2014 10:00 6,8 C 85 % 1020,5 hPa 0,0 l/m 0,0 km/h (0 Bft) N 0,00 h 0,000 mm 2,0 UV-I 88 W/m 4,5 C 6,8 C 0,0 km/h (0 Bft) 0,00 %
02.11.2014 11:00 7,3 C 84 % 1019,6 hPa 0,0 l/m 0,2 km/h (0 Bft) N 0,00 h 0,000 mm 1,3 UV-I 118 W/m 4,7 C 7,3 C 1,0 km/h (0 Bft) 0,00 %
02.11.2014 12:00 7,6 C 83 % 1018,8 hPa 0,0 l/m 0,4 km/h (0 Bft) SO 0,00 h 0,000 mm 1,3 UV-I 145 W/m 4,9 C 7,6 C 2,0 km/h (1 Bft) 0,00 %
02.11.2014 13:00 7,6 C 83 % 1018,8 hPa 0,0 l/m 0,1 km/h (0 Bft) N 0,00 h 0,000 mm 1,0 UV-I 114 W/m 4,9 C 7,6 C 1,0 km/h (0 Bft) 0,00 %
02.11.2014 14:00 7,8 C 83 % 1018,8 hPa 0,0 l/m 1,6 km/h (1 Bft) O 0,00 h 0,000 mm 1,0 UV-I 100 W/m 5,2 C 7,8 C 4,0 km/h (1 Bft) 0,00 %
02.11.2014 15:00 7,4 C 84 % 1018,8 hPa 0,0 l/m 2,2 km/h (1 Bft) O-NO 0,00 h 0,000 mm 0,0 UV-I 50 W/m 4,9 C 7,3 C 4,0 km/h (1 Bft) 0,00 %
02.11.2014 16:00 7,0 C 85 % 1018,9 hPa 0,0 l/m 1,0 km/h (0 Bft) O 0,25 h 0,000 mm 0,0 UV-I 0 W/m 4,7 C 7,0 C 2,0 km/h (1 Bft) 0,00 %
02.11.2014 17:00 6,9 C 85 % 1019,0 hPa 0,0 l/m 1,8 km/h (1 Bft) O 0,00 h 0,000 mm 0,0 UV-I 0 W/m 4,5 C 6,9 C 5,0 km/h (1 Bft) 0,00 %
02.11.2014 18:00 6,4 C 86 % 1019,0 hPa 0,0 l/m 1,4 km/h (1 Bft) O 0,00 h 0,000 mm 0,0 UV-I 0 W/m 4,1 C 6,4 C 4,0 km/h (1 Bft) 0,00 %
02.11.2014 19:00 5,9 C 86 % 1019,1 hPa 0,0 l/m 3,1 km/h (1 Bft) O 0,00 h 0,000 mm 0,0 UV-I 0 W/m 3,7 C 5,9 C 5,9 km/h (2 Bft) 0,00 %
02.11.2014 20:00 5,6 C 86 % 1019,1 hPa 0,0 l/m 1,0 km/h (0 Bft) N 0,00 h 0,000 mm 0,0 UV-I 0 W/m 3,4 C 5,6 C 2,0 km/h (1 Bft) 0,00 %
02.11.2014 21:00 5,3 C 86 % 1019,2 hPa 0,0 l/m 0,3 km/h (0 Bft) N 0,00 h 0,000 mm 0,0 UV-I 0 W/m 3,2 C 5,3 C 2,0 km/h (1 Bft) 0,00 %
02.11.2014 22:00 5,2 C 86 % 1019,2 hPa 0,0 l/m 0,9 km/h (0 Bft) O 0,00 h 0,000 mm 0,0 UV-I 0 W/m 3,1 C 5,2 C 3,0 km/h (1 Bft) 0,00 %
02.11.2014 23:00 5,1 C 86 % 1019,2 hPa 0,3 l/m 0,7 km/h (0 Bft) O-SO 0,00 h 0,000 mm 0,0 UV-I 0 W/m 2,9 C 5,1 C 2,0 km/h (1 Bft) 0,00 %
Min-Datum _ 28.10.14 30.10.14 29.10.14 - 27.10.14 - - - - - 28.10.14 27.10.14 27.10.14 27.10.14
_ Min-Zeit 23:30 13:30 15:00 - 00:00 - - - - - 22:30 22:45 00:00 00:00
Minimum _ 1,7 C 63 % 1017,7 hPa - 0,0 km/h (0 Bft) - - - - - -1,1 C -1,1 C 0,0 km/h (0 Bft) 0,00 %
Max-Datum _ 30.10.14 27.10.14 27.10.14 01.11.14 27.10.14 - 27.10.14 27.10.14 28.10.14 30.10.14 01.11.14 30.10.14 27.10.14 27.10.14
_ Max-Zeit 13:45 00:15 09:45 01:15 22:45 - 08:00 00:00 09:45 10:30 15:30 13:45 21:30 00:00
Maximum _ 13,1 C 87 % 1029,1 hPa 0,3 l/m 16,6 km/h
O (3 Bft)
- 0,25 h 0,000 mm 2,0 UV-I 846 W/m 7,0 C 13,1 C 24,1 km/h
O (4 Bft)
0,00 %
Durchschnitt _ 6,3 C 81 % 1023,1 hPa #0,9 l/m 0,8 km/h (0 Bft) O #38:45 h #0,000 mm 1,4 UV-I 305 W/m 3,3 C 6,2 C 1,4 km/h (1 Bft) 0,00 %